Terminal Aerodrome Forecast
Issued by NWS

Home | Current Version | Previous Version | Text Only | Print | Product List | Glossary Off
Versions: 1 2 3 4 5 6 7 8 9 10 11 12 13 14 15 16 17 18 19 20 21 22 23 24 25 26 27

000
FTUS43 KLOT 201933 AAA
TAFMDW
TAF AMD
KMDW 201933Z 2020/2118 02013G21KT P6SM VCSH SCT050 BKN100
      TEMPO 2020/2022 04020G30KT 5SM TSRA BKN050CB
     FM202230 07012KT 6SM -SHRA VCTS SCT050CB BKN080
     FM202330 11008KT P6SM SCT080
     FM210500 03004KT P6SM FEW100
     FM211500 06005KT P6SM BKN250=

USA.gov is the U.S. government's official web portal to all federal, state and local government web resources and services.